createdAt,value
2022-09-28T00:00:58.119Z,14.68
2022-09-28T00:01:58.118Z,14.65
2022-09-28T00:02:58.041Z,14.67
2022-09-28T00:03:57.935Z,14.68
2022-09-28T00:04:57.829Z,14.72
2022-09-28T00:05:57.775Z,14.68
2022-09-28T00:06:57.722Z,14.65
2022-09-28T00:07:57.666Z,14.65
2022-09-28T00:08:57.617Z,14.68
2022-09-28T00:09:57.558Z,14.65
2022-09-28T00:10:57.500Z,14.65
2022-09-28T00:11:57.453Z,14.67
2022-09-28T00:12:57.407Z,14.67
2022-09-28T00:13:57.344Z,14.65
2022-09-28T00:14:57.282Z,14.69
2022-09-28T00:15:57.303Z,14.68
2022-09-28T00:16:57.173Z,14.67
2022-09-28T00:17:57.119Z,14.67
2022-09-28T00:18:57.064Z,14.69
2022-09-28T00:19:57.010Z,14.69
2022-09-28T00:21:18.715Z,14.67
2022-09-28T00:21:56.903Z,14.64
2022-09-28T00:22:56.847Z,14.65
2022-09-28T00:23:56.791Z,14.67
2022-09-28T00:24:56.737Z,14.71
2022-09-28T00:25:56.680Z,14.68
2022-09-28T00:26:56.629Z,14.68
2022-09-28T00:27:56.574Z,14.64
2022-09-28T00:28:56.517Z,14.68
2022-09-28T00:29:56.471Z,14.68
2022-09-28T00:30:56.409Z,14.68
2022-09-28T00:31:56.460Z,14.64
2022-09-28T00:32:56.299Z,14.54
2022-09-28T00:33:56.243Z,14.60
2022-09-28T00:34:56.190Z,14.53
2022-09-28T00:35:56.145Z,14.57
2022-09-28T00:36:56.082Z,14.57
2022-09-28T00:37:56.026Z,14.60
2022-09-28T00:38:55.972Z,14.54
2022-09-28T00:39:55.918Z,14.62
2022-09-28T00:40:55.991Z,14.54
2022-09-28T00:41:55.807Z,14.57
2022-09-28T00:42:55.766Z,14.62
2022-09-28T00:43:55.698Z,14.53
2022-09-28T00:44:55.643Z,14.54
2022-09-28T00:45:55.698Z,14.54
2022-09-28T00:46:55.556Z,14.65
2022-09-28T00:47:55.485Z,14.57
2022-09-28T00:48:55.430Z,14.56
2022-09-28T00:49:55.373Z,14.52
2022-09-28T00:51:31.222Z,14.64
2022-09-28T00:51:58.254Z,14.56
2022-09-28T00:52:55.210Z,14.60
2022-09-28T00:53:55.153Z,14.54
2022-09-28T00:54:55.096Z,14.57
2022-09-28T00:55:55.051Z,14.61
2022-09-28T00:56:54.987Z,14.54
2022-09-28T00:57:54.934Z,14.54
2022-09-28T00:58:54.888Z,14.53
2022-09-28T00:59:54.824Z,14.64
2022-09-28T01:00:54.823Z,14.56
2022-09-28T01:01:54.752Z,14.67
2022-09-28T01:02:54.659Z,14.62
2022-09-28T01:03:54.609Z,14.64
2022-09-28T01:04:54.552Z,14.62
2022-09-28T01:05:54.496Z,14.65
2022-09-28T01:06:54.440Z,14.64
2022-09-28T01:07:54.387Z,14.65
2022-09-28T01:08:54.329Z,14.64
2022-09-28T01:09:54.277Z,14.54
2022-09-28T01:10:54.225Z,14.68
2022-09-28T01:11:54.169Z,14.65
2022-09-28T01:12:54.113Z,14.62
2022-09-28T01:13:54.059Z,14.67
2022-09-28T01:14:54.003Z,14.65
2022-09-28T01:15:53.991Z,14.60
2022-09-28T01:16:53.893Z,14.71
2022-09-28T01:17:53.849Z,14.67
2022-09-28T01:18:53.785Z,14.65
2022-09-28T01:19:53.731Z,14.67
2022-09-28T01:20:53.678Z,14.57
2022-09-28T01:21:53.622Z,14.67
2022-09-28T01:22:53.566Z,14.61
2022-09-28T01:23:53.513Z,14.61
2022-09-28T01:24:53.456Z,14.68
2022-09-28T01:25:53.403Z,14.67
2022-09-28T01:26:53.347Z,14.65
2022-09-28T01:27:53.295Z,14.68
2022-09-28T01:28:53.242Z,14.61
2022-09-28T01:29:53.187Z,14.65
2022-09-28T01:30:53.149Z,14.69
2022-09-28T01:31:53.150Z,14.71
2022-09-28T01:32:53.021Z,14.64
2022-09-28T01:33:52.977Z,14.60
2022-09-28T01:34:52.909Z,14.68
2022-09-28T01:35:52.856Z,14.64
2022-09-28T01:36:52.805Z,14.68
2022-09-28T01:37:52.751Z,14.67
2022-09-28T01:38:52.695Z,14.72
2022-09-28T01:39:52.638Z,14.69
2022-09-28T01:40:52.644Z,14.69
2022-09-28T01:41:52.537Z,14.67
2022-09-28T01:42:52.473Z,14.69
2022-09-28T01:43:52.419Z,14.62
2022-09-28T01:44:52.363Z,14.69
2022-09-28T01:45:52.365Z,14.68
2022-09-28T01:46:52.257Z,14.65
2022-09-28T01:47:52.201Z,14.68
2022-09-28T01:48:52.144Z,14.65
2022-09-28T01:49:52.098Z,14.69
2022-09-28T01:50:52.036Z,14.69
2022-09-28T01:51:51.982Z,14.65
2022-09-28T01:52:51.926Z,14.74
2022-09-28T01:53:51.873Z,14.69
2022-09-28T01:54:51.820Z,14.65
2022-09-28T01:55:51.771Z,14.65
2022-09-28T01:56:51.711Z,14.69
2022-09-28T01:57:51.656Z,14.65
2022-09-28T01:58:51.601Z,14.68
2022-09-28T01:59:51.547Z,14.71
2022-09-28T02:00:51.545Z,14.67
2022-09-28T02:01:51.454Z,14.64
2022-09-28T02:02:51.379Z,14.65
2022-09-28T02:03:51.330Z,14.62
2022-09-28T02:04:51.270Z,14.67
2022-09-28T02:05:51.223Z,14.67
2022-09-28T02:06:51.162Z,14.67
2022-09-28T02:07:51.110Z,14.65
2022-09-28T02:08:51.051Z,14.64
2022-09-28T02:09:50.998Z,14.64
2022-09-28T02:10:50.942Z,14.67
2022-09-28T02:11:50.889Z,14.68
2022-09-28T02:12:50.834Z,14.69
2022-09-28T02:13:50.783Z,14.61
2022-09-28T02:14:50.726Z,14.64
2022-09-28T02:15:50.671Z,14.68
2022-09-28T02:16:50.614Z,14.69
2022-09-28T02:17:50.562Z,14.64
2022-09-28T02:18:50.505Z,14.67
2022-09-28T02:19:50.456Z,14.71
2022-09-28T02:20:50.397Z,14.65
2022-09-28T02:21:50.347Z,14.69
2022-09-28T02:22:50.291Z,14.62
2022-09-28T02:23:50.233Z,14.62
2022-09-28T02:24:50.176Z,14.69
2022-09-28T02:25:50.130Z,14.68
2022-09-28T02:26:50.067Z,14.67
2022-09-28T02:27:50.014Z,14.64
2022-09-28T02:28:49.962Z,14.69
2022-09-28T02:29:49.904Z,14.69
2022-09-28T02:30:49.851Z,14.69
2022-09-28T02:31:49.853Z,14.67
2022-09-28T02:32:49.741Z,14.65
2022-09-28T02:33:49.685Z,14.68
2022-09-28T02:34:49.631Z,14.69
2022-09-28T02:35:49.585Z,14.65
2022-09-28T02:36:49.525Z,14.64
2022-09-28T02:37:49.471Z,14.65
2022-09-28T02:38:49.414Z,14.61
2022-09-28T02:39:49.358Z,14.67
2022-09-28T02:40:49.346Z,14.69
2022-09-28T02:41:49.249Z,14.64
2022-09-28T02:42:49.195Z,14.61
2022-09-28T02:43:49.138Z,14.69
2022-09-28T02:44:49.086Z,14.74
2022-09-28T02:45:49.098Z,14.69
2022-09-28T02:46:48.982Z,14.69
2022-09-28T02:47:48.925Z,14.68
2022-09-28T02:49:00.190Z,14.65
2022-09-28T02:49:48.810Z,14.67
2022-09-28T02:50:48.760Z,14.69
2022-09-28T02:51:48.704Z,14.74
2022-09-28T02:52:48.652Z,14.64
2022-09-28T02:53:48.600Z,14.65
2022-09-28T02:54:48.539Z,14.65
2022-09-28T02:55:48.485Z,14.64
2022-09-28T02:56:48.431Z,14.64
2022-09-28T02:57:48.394Z,14.64
2022-09-28T02:58:48.321Z,14.69
2022-09-28T02:59:48.265Z,14.67
2022-09-28T03:00:48.246Z,14.65
2022-09-28T03:01:48.172Z,14.65
2022-09-28T03:02:48.102Z,14.67
2022-09-28T03:03:48.082Z,14.67
2022-09-28T03:04:47.991Z,14.64
2022-09-28T03:05:47.937Z,14.65
2022-09-28T03:06:47.882Z,14.67
2022-09-28T03:07:47.828Z,14.65
2022-09-28T03:08:47.772Z,14.67
2022-09-28T03:09:47.730Z,14.67
2022-09-28T03:10:47.667Z,14.64
2022-09-28T03:11:47.608Z,14.68
2022-09-28T03:12:47.558Z,14.67
2022-09-28T03:13:47.500Z,14.67
2022-09-28T03:14:47.447Z,14.65
2022-09-28T03:15:49.037Z,14.67
2022-09-28T03:16:47.407Z,14.69
2022-09-28T03:17:47.309Z,14.68
2022-09-28T03:18:47.232Z,14.67
2022-09-28T03:19:47.171Z,14.69
2022-09-28T03:20:47.118Z,14.69
2022-09-28T03:21:47.072Z,14.67
2022-09-28T03:23:05.923Z,14.67
2022-09-28T03:23:46.953Z,14.69
2022-09-28T03:24:46.898Z,14.71
2022-09-28T03:25:46.911Z,14.71
2022-09-28T03:26:46.789Z,14.69
2022-09-28T03:27:46.736Z,14.67
2022-09-28T03:28:46.681Z,14.68
2022-09-28T03:29:46.623Z,14.69
2022-09-28T03:30:46.577Z,14.69
2022-09-28T03:31:46.573Z,14.64
2022-09-28T03:32:46.461Z,14.71
2022-09-28T03:33:46.408Z,14.69
2022-09-28T03:34:46.354Z,14.69
2022-09-28T03:35:46.296Z,14.69
2022-09-28T03:36:46.243Z,14.69
2022-09-28T03:37:46.187Z,14.71
2022-09-28T03:38:46.133Z,14.69
2022-09-28T03:39:46.083Z,14.67
2022-09-28T03:40:46.084Z,14.68
2022-09-28T03:41:45.976Z,14.65
2022-09-28T03:42:45.916Z,14.74
2022-09-28T03:43:45.858Z,14.67
2022-09-28T03:44:45.804Z,14.62
2022-09-28T03:45:45.862Z,14.69
2022-09-28T03:46:45.696Z,14.68
2022-09-28T03:47:45.643Z,14.64
2022-09-28T03:48:45.587Z,14.67
2022-09-28T03:49:45.530Z,14.68
2022-09-28T03:50:45.481Z,14.68
2022-09-28T03:51:45.422Z,14.68
2022-09-28T03:52:45.384Z,14.68
2022-09-28T03:53:45.314Z,14.65
2022-09-28T03:54:49.066Z,14.67
2022-09-28T03:55:45.203Z,14.68
2022-09-28T03:56:45.149Z,14.68
2022-09-28T03:57:45.101Z,14.64
2022-09-28T03:58:45.039Z,14.69
2022-09-28T03:59:44.988Z,14.69
2022-09-28T04:00:44.960Z,14.67
2022-09-28T04:01:44.903Z,14.67
2022-09-28T04:02:44.822Z,14.65
2022-09-28T04:03:44.766Z,14.69
2022-09-28T04:04:44.711Z,14.64
2022-09-28T04:05:44.658Z,14.68
2022-09-28T04:06:44.608Z,14.67
2022-09-28T04:07:44.548Z,14.69
2022-09-28T04:08:44.498Z,14.69
2022-09-28T04:09:44.438Z,14.72
2022-09-28T04:10:44.386Z,14.69
2022-09-28T04:12:02.813Z,14.65
2022-09-28T04:12:44.275Z,14.69
2022-09-28T04:13:44.328Z,14.71
2022-09-28T04:14:44.167Z,14.78
2022-09-28T04:15:44.111Z,14.74
2022-09-28T04:16:44.084Z,14.80
2022-09-28T04:17:43.999Z,14.75
2022-09-28T04:18:43.946Z,14.80
2022-09-28T04:19:43.890Z,14.74
2022-09-28T04:20:43.858Z,14.75
2022-09-28T04:21:43.783Z,14.75
2022-09-28T04:22:43.731Z,14.71
2022-09-28T04:23:43.672Z,14.78
2022-09-28T04:24:43.640Z,14.75
2022-09-28T04:25:43.564Z,14.75
2022-09-28T04:26:43.514Z,14.78
2022-09-28T04:27:43.454Z,14.69
2022-09-28T04:28:46.296Z,14.80
2022-09-28T04:29:43.347Z,14.86
2022-09-28T04:30:43.291Z,14.83
2022-09-28T04:31:43.278Z,14.81
2022-09-28T04:32:43.180Z,14.84
2022-09-28T04:33:43.127Z,14.80
2022-09-28T04:34:44.491Z,14.75
2022-09-28T04:35:43.017Z,14.80
2022-09-28T04:36:42.963Z,14.81
2022-09-28T04:37:42.907Z,14.74
2022-09-28T04:38:54.099Z,14.71
2022-09-28T04:39:46.266Z,14.69
2022-09-28T04:40:42.773Z,14.84
2022-09-28T04:41:44.291Z,14.75
2022-09-28T04:42:43.287Z,14.87
2022-09-28T04:43:42.582Z,14.71
2022-09-28T04:44:42.538Z,14.78
2022-09-28T04:45:42.524Z,14.75
2022-09-28T04:46:42.418Z,14.71
2022-09-28T04:47:42.361Z,14.81
2022-09-28T04:48:42.314Z,14.90
2022-09-28T04:49:42.253Z,14.83
2022-09-28T04:50:42.199Z,14.90
2022-09-28T04:51:42.143Z,14.69
2022-09-28T04:52:42.092Z,14.81
2022-09-28T04:53:42.039Z,14.83
2022-09-28T04:54:41.981Z,14.74
2022-09-28T04:55:41.925Z,14.84
2022-09-28T04:56:41.874Z,14.78
2022-09-28T04:57:41.818Z,14.75
2022-09-28T04:58:41.768Z,14.72
2022-09-28T04:59:41.716Z,14.86
2022-09-28T05:00:41.745Z,14.84
2022-09-28T05:01:41.596Z,14.86
2022-09-28T05:02:41.570Z,14.80
2022-09-28T05:03:41.490Z,14.78
2022-09-28T05:04:41.440Z,14.75
2022-09-28T05:05:41.378Z,14.74
2022-09-28T05:06:41.326Z,14.83
2022-09-28T05:07:41.271Z,14.86
2022-09-28T05:08:41.222Z,14.83
2022-09-28T05:09:41.160Z,14.78
2022-09-28T05:10:41.106Z,14.78
2022-09-28T05:11:41.052Z,14.75
2022-09-28T05:12:40.997Z,14.75
2022-09-28T05:13:40.941Z,14.80
2022-09-28T05:14:40.889Z,14.75
2022-09-28T05:15:40.833Z,14.86
2022-09-28T05:16:40.851Z,14.80
2022-09-28T05:17:40.725Z,14.78
2022-09-28T05:18:40.670Z,14.91
2022-09-28T05:19:40.625Z,14.83
2022-09-28T05:20:40.560Z,14.86
2022-09-28T05:21:40.506Z,14.75
2022-09-28T05:22:40.453Z,14.90
2022-09-28T05:23:40.396Z,14.75
2022-09-28T05:24:40.345Z,14.75
2022-09-28T05:25:40.287Z,14.86
2022-09-28T05:26:40.235Z,14.75
2022-09-28T05:27:40.177Z,14.90
2022-09-28T05:28:40.123Z,14.75
2022-09-28T05:29:40.071Z,14.90
2022-09-28T05:30:40.017Z,14.80
2022-09-28T05:31:40.028Z,14.86
2022-09-28T05:32:39.912Z,14.86
2022-09-28T05:33:39.853Z,14.80
2022-09-28T05:34:39.808Z,14.74
2022-09-28T05:35:39.744Z,14.86
2022-09-28T05:36:39.687Z,14.90
2022-09-28T05:37:39.632Z,14.86
2022-09-28T05:38:39.584Z,14.88
2022-09-28T05:39:39.524Z,14.83
2022-09-28T05:40:39.536Z,14.86
2022-09-28T05:41:39.420Z,14.86
2022-09-28T05:42:39.367Z,14.86
2022-09-28T05:43:39.307Z,14.83
2022-09-28T05:44:39.250Z,14.86
2022-09-28T05:45:39.228Z,14.90
2022-09-28T05:46:39.142Z,14.87
2022-09-28T05:47:39.085Z,14.75
2022-09-28T05:48:39.040Z,14.83
2022-09-28T05:49:38.977Z,14.83
2022-09-28T05:50:38.925Z,14.80
2022-09-28T05:51:38.872Z,14.86
2022-09-28T05:52:38.816Z,14.80
2022-09-28T05:53:38.761Z,14.91
2022-09-28T05:54:38.704Z,14.87
2022-09-28T05:55:38.651Z,14.81
2022-09-28T05:56:38.595Z,14.88
2022-09-28T05:57:38.540Z,14.80
2022-09-28T05:58:38.487Z,14.87
2022-09-28T05:59:38.433Z,14.88
2022-09-28T06:00:39.304Z,14.83
2022-09-28T06:01:38.454Z,14.83
2022-09-28T06:02:38.357Z,14.86
2022-09-28T06:03:38.214Z,14.86
2022-09-28T06:04:38.169Z,14.90
2022-09-28T06:05:38.103Z,14.86
2022-09-28T06:06:38.052Z,14.75
2022-09-28T06:07:37.994Z,14.86
2022-09-28T06:08:37.940Z,14.86
2022-09-28T06:09:37.885Z,14.88
2022-09-28T06:10:37.836Z,14.86
2022-09-28T06:11:37.776Z,14.87
2022-09-28T06:12:37.723Z,14.87
2022-09-28T06:13:37.671Z,14.83
2022-09-28T06:14:37.615Z,14.87
2022-09-28T06:15:37.557Z,14.91
2022-09-28T06:16:41.711Z,14.86
2022-09-28T06:17:37.451Z,14.90
2022-09-28T06:18:37.395Z,14.75
2022-09-28T06:19:37.339Z,14.80
2022-09-28T06:20:37.291Z,14.87
2022-09-28T06:21:37.231Z,14.87
2022-09-28T06:22:37.180Z,14.87
2022-09-28T06:23:37.120Z,14.91
2022-09-28T06:24:37.070Z,14.86
2022-09-28T06:25:37.013Z,14.87
2022-09-28T06:26:36.961Z,14.88
2022-09-28T06:27:36.903Z,14.84
2022-09-28T06:28:36.849Z,14.86
2022-09-28T06:29:36.795Z,14.87
2022-09-28T06:30:36.768Z,14.90
2022-09-28T06:31:36.687Z,14.88
2022-09-28T06:32:36.631Z,14.86
2022-09-28T06:33:36.576Z,14.88
2022-09-28T06:34:36.541Z,14.86
2022-09-28T06:35:36.466Z,14.80
2022-09-28T06:36:36.427Z,14.88
2022-09-28T06:37:36.370Z,14.75
2022-09-28T06:38:36.303Z,14.88
2022-09-28T06:39:36.247Z,14.81
2022-09-28T06:40:36.332Z,14.81
2022-09-28T06:41:36.138Z,14.80
2022-09-28T06:42:36.120Z,14.90
2022-09-28T06:43:36.031Z,14.78
2022-09-28T06:44:35.975Z,14.90
2022-09-28T06:45:35.923Z,14.90
2022-09-28T06:46:35.915Z,14.80
2022-09-28T06:47:35.816Z,14.88
2022-09-28T06:48:35.756Z,14.86
2022-09-28T06:49:35.704Z,14.90
2022-09-28T06:50:35.651Z,14.81
2022-09-28T06:51:35.595Z,14.91
2022-09-28T06:52:35.546Z,14.86
2022-09-28T06:53:35.488Z,14.88
2022-09-28T06:54:35.430Z,14.87
2022-09-28T06:55:35.377Z,14.75
2022-09-28T06:56:35.323Z,14.90
2022-09-28T06:57:35.268Z,14.81
2022-09-28T06:58:35.213Z,14.91
2022-09-28T06:59:35.160Z,14.75
2022-09-28T07:00:35.104Z,14.87
2022-09-28T07:01:35.085Z,14.83
2022-09-28T07:02:35.084Z,14.74
2022-09-28T07:03:34.939Z,14.91
2022-09-28T07:04:34.883Z,14.81
2022-09-28T07:05:34.831Z,14.84
2022-09-28T07:06:34.775Z,14.80
2022-09-28T07:07:34.723Z,14.86
2022-09-28T07:08:34.680Z,14.88
2022-09-28T07:09:38.176Z,14.81
2022-09-28T07:10:34.571Z,14.87
2022-09-28T07:11:34.503Z,14.88
2022-09-28T07:12:34.447Z,14.86
2022-09-28T07:13:49.532Z,14.87
2022-09-28T07:14:47.026Z,14.88
2022-09-28T07:15:34.286Z,14.87
2022-09-28T07:17:00.126Z,14.87
2022-09-28T07:17:37.877Z,14.90
2022-09-28T07:18:34.120Z,14.84
2022-09-28T07:19:34.069Z,14.91
2022-09-28T07:20:42.619Z,14.87
2022-09-28T07:21:33.957Z,14.86
2022-09-28T07:22:41.699Z,14.90
2022-09-28T07:23:41.672Z,14.90
2022-09-28T07:24:33.802Z,14.94
2022-09-28T07:25:33.738Z,14.90
2022-09-28T07:26:33.684Z,14.91
2022-09-28T07:27:33.630Z,14.90
2022-09-28T07:28:33.577Z,14.88
2022-09-28T07:29:54.512Z,14.88
2022-09-28T07:30:33.532Z,14.94
2022-09-28T07:31:33.412Z,14.86
2022-09-28T07:32:33.358Z,14.93
2022-09-28T07:33:33.302Z,14.86
2022-09-28T07:34:33.249Z,14.84
2022-09-28T07:35:33.192Z,14.93
2022-09-28T07:36:33.145Z,14.86
2022-09-28T07:37:33.082Z,14.91
2022-09-28T07:38:33.031Z,14.91
2022-09-28T07:39:32.974Z,14.83
2022-09-28T07:40:33.075Z,14.86
2022-09-28T07:41:32.863Z,14.87
2022-09-28T07:42:32.813Z,14.93
2022-09-28T07:43:32.758Z,14.94
2022-09-28T07:44:32.702Z,14.91
2022-09-28T07:45:32.674Z,14.90
2022-09-28T07:46:32.595Z,14.81
2022-09-28T07:47:35.250Z,14.94
2022-09-28T07:48:32.484Z,14.87
2022-09-28T07:49:32.431Z,14.90
2022-09-28T07:50:32.377Z,14.86
2022-09-28T07:51:32.319Z,14.86
2022-09-28T07:52:32.265Z,14.90
2022-09-28T07:53:32.209Z,14.87
2022-09-28T07:54:32.157Z,14.88
2022-09-28T07:55:32.107Z,14.95
2022-09-28T07:56:53.043Z,14.86
2022-09-28T07:57:31.993Z,14.88
2022-09-28T07:58:31.937Z,14.86
2022-09-28T07:59:31.884Z,14.91
2022-09-28T08:00:34.116Z,14.88
2022-09-28T08:01:31.799Z,14.95
2022-09-28T08:02:31.742Z,14.93
2022-09-28T08:03:31.665Z,14.95
2022-09-28T08:04:31.611Z,14.93
2022-09-28T08:05:31.560Z,14.84
2022-09-28T08:06:31.501Z,14.87
2022-09-28T08:07:31.458Z,14.86
2022-09-28T08:08:31.392Z,14.98
2022-09-28T08:09:31.338Z,14.94
2022-09-28T08:10:31.282Z,14.90
2022-09-28T08:11:31.235Z,14.90
2022-09-28T08:12:31.178Z,14.93
2022-09-28T08:13:31.155Z,14.93
2022-09-28T08:14:31.064Z,14.93
2022-09-28T08:15:31.012Z,14.88
2022-09-28T08:16:31.154Z,14.94
2022-09-28T08:17:30.901Z,14.99
2022-09-28T08:18:30.889Z,14.93
2022-09-28T08:19:30.800Z,14.94
2022-09-28T08:20:30.736Z,14.93
2022-09-28T08:21:30.684Z,14.94
2022-09-28T08:22:30.627Z,14.98
2022-09-28T08:23:30.575Z,14.90
2022-09-28T08:24:30.519Z,14.90
2022-09-28T08:25:30.468Z,14.87
2022-09-28T08:26:30.411Z,14.93
2022-09-28T08:27:30.358Z,14.99
2022-09-28T08:28:30.310Z,14.88
2022-09-28T08:29:30.248Z,14.91
2022-09-28T08:30:30.236Z,14.98
2022-09-28T08:31:30.138Z,14.94
2022-09-28T08:32:30.084Z,14.94
2022-09-28T08:33:30.028Z,14.87
2022-09-28T08:34:36.843Z,14.88
2022-09-28T08:35:29.921Z,14.94
2022-09-28T08:36:29.864Z,14.91
2022-09-28T08:37:29.813Z,14.93
2022-09-28T08:38:29.755Z,14.94
2022-09-28T08:39:29.703Z,14.87
2022-09-28T08:40:29.707Z,14.98
2022-09-28T08:41:29.592Z,15.01
2022-09-28T08:42:29.536Z,14.94
2022-09-28T08:43:29.485Z,14.94
2022-09-28T08:44:29.434Z,14.95
2022-09-28T08:45:29.374Z,15.01
2022-09-28T08:46:29.360Z,14.91
2022-09-28T08:47:29.266Z,15.01
2022-09-28T08:48:29.228Z,15.02
2022-09-28T08:49:29.159Z,14.93
2022-09-28T08:50:29.105Z,14.99
2022-09-28T08:51:29.048Z,15.01
2022-09-28T08:52:28.990Z,14.98
2022-09-28T08:53:28.941Z,14.93
2022-09-28T08:54:28.885Z,14.91
2022-09-28T08:55:28.833Z,14.91
2022-09-28T08:56:28.777Z,14.90
2022-09-28T08:57:28.728Z,14.95
2022-09-28T08:58:28.669Z,15.01
2022-09-28T08:59:28.611Z,14.99
2022-09-28T09:00:28.561Z,14.98
2022-09-28T09:01:28.606Z,15.03
2022-09-28T09:02:28.529Z,14.95
2022-09-28T09:03:43.379Z,15.01
2022-09-28T09:04:28.336Z,14.94
2022-09-28T09:05:28.284Z,14.90
2022-09-28T09:06:28.228Z,15.05
2022-09-28T09:07:28.175Z,14.99
2022-09-28T09:08:28.118Z,14.99
2022-09-28T09:09:28.066Z,15.03
2022-09-28T09:10:28.009Z,15.05
2022-09-28T09:11:27.959Z,15.05
2022-09-28T09:12:27.903Z,15.06
2022-09-28T09:13:27.852Z,15.06
2022-09-28T09:14:27.792Z,15.02
2022-09-28T09:15:27.741Z,15.08
2022-09-28T09:16:27.733Z,14.94
2022-09-28T09:17:27.630Z,14.98
2022-09-28T09:18:27.577Z,15.05
2022-09-28T09:19:27.521Z,15.03
2022-09-28T09:20:27.478Z,15.05
2022-09-28T09:21:27.413Z,15.01
2022-09-28T09:22:27.356Z,15.03
2022-09-28T09:23:27.305Z,14.99
2022-09-28T09:24:27.317Z,14.93
2022-09-28T09:25:27.194Z,15.01
2022-09-28T09:26:27.141Z,15.01
2022-09-28T09:27:27.087Z,14.93
2022-09-28T09:28:27.028Z,14.99
2022-09-28T09:29:26.975Z,15.01
2022-09-28T09:30:29.983Z,14.98
2022-09-28T09:31:26.885Z,14.98
2022-09-28T09:32:26.821Z,15.01
2022-09-28T09:33:26.760Z,15.06
2022-09-28T09:34:26.714Z,15.02
2022-09-28T09:35:30.256Z,14.99
2022-09-28T09:36:26.598Z,15.03
2022-09-28T09:37:26.540Z,15.03
2022-09-28T09:38:26.504Z,15.03
2022-09-28T09:39:26.431Z,15.06
2022-09-28T09:40:26.492Z,15.01
2022-09-28T09:41:26.323Z,14.98
2022-09-28T09:42:26.267Z,15.11
2022-09-28T09:43:29.355Z,15.08
2022-09-28T09:44:26.158Z,15.09
2022-09-28T09:45:26.108Z,15.06
2022-09-28T09:46:26.148Z,15.02
2022-09-28T09:47:25.995Z,15.08
2022-09-28T09:48:25.946Z,15.06
2022-09-28T09:49:25.886Z,15.03
2022-09-28T09:50:25.830Z,15.06
2022-09-28T09:51:25.777Z,15.06
2022-09-28T09:52:25.736Z,15.05
2022-09-28T09:53:25.671Z,15.08
2022-09-28T09:54:25.616Z,15.02
2022-09-28T09:55:29.967Z,15.05
2022-09-28T09:56:25.504Z,15.11
2022-09-28T09:57:25.458Z,15.08
2022-09-28T09:58:25.395Z,15.06
2022-09-28T09:59:25.344Z,15.09
2022-09-28T10:00:25.286Z,15.03
2022-09-28T10:01:25.304Z,15.02
2022-09-28T10:02:25.224Z,15.05
2022-09-28T10:03:25.126Z,15.09
2022-09-28T10:04:25.075Z,15.13
2022-09-28T10:05:25.018Z,15.11
2022-09-28T10:06:24.958Z,15.11
2022-09-28T10:07:24.911Z,15.03
2022-09-28T10:08:24.853Z,15.11
2022-09-28T10:09:24.797Z,15.08
2022-09-28T10:10:24.741Z,15.08
2022-09-28T10:11:24.688Z,15.09
2022-09-28T10:12:24.630Z,15.21
2022-09-28T10:13:24.580Z,15.09
2022-09-28T10:14:24.523Z,15.08
2022-09-28T10:15:24.471Z,15.15
2022-09-28T10:16:24.496Z,15.19
2022-09-28T10:17:24.364Z,15.12
2022-09-28T10:18:24.307Z,15.19
2022-09-28T10:19:24.252Z,15.13
2022-09-28T10:20:24.206Z,15.21
2022-09-28T10:21:24.145Z,15.05
2022-09-28T10:22:24.088Z,15.12
2022-09-28T10:23:24.034Z,15.17
2022-09-28T10:24:23.979Z,15.17
2022-09-28T10:25:23.926Z,15.15
2022-09-28T10:26:25.127Z,15.13
2022-09-28T10:27:23.816Z,15.15
2022-09-28T10:28:23.760Z,15.19
2022-09-28T10:29:23.708Z,15.21
2022-09-28T10:30:23.663Z,15.11
2022-09-28T10:31:23.599Z,15.11
2022-09-28T10:32:23.541Z,15.23
2022-09-28T10:33:23.492Z,15.21
2022-09-28T10:34:23.435Z,15.23
2022-09-28T10:35:23.398Z,15.17
2022-09-28T10:36:23.330Z,15.13
2022-09-28T10:37:23.272Z,15.21
2022-09-28T10:38:23.217Z,15.17
2022-09-28T10:39:23.165Z,15.19
2022-09-28T10:40:23.149Z,15.24
2022-09-28T10:41:23.054Z,15.19
2022-09-28T10:42:23.002Z,15.26
2022-09-28T10:43:22.949Z,15.20
2022-09-28T10:44:22.893Z,15.19
2022-09-28T10:45:22.839Z,15.24
2022-09-28T10:46:22.814Z,15.24
2022-09-28T10:47:22.728Z,15.19
2022-09-28T10:48:22.675Z,15.27
2022-09-28T10:49:22.618Z,15.33
2022-09-28T10:50:22.571Z,15.21
2022-09-28T10:51:22.510Z,15.27
2022-09-28T10:52:22.478Z,15.24
2022-09-28T10:53:23.330Z,15.28
2022-09-28T10:54:22.346Z,15.21
2022-09-28T10:55:22.294Z,15.20
2022-09-28T10:56:22.236Z,15.24
2022-09-28T10:57:22.182Z,15.28
2022-09-28T10:58:22.132Z,15.17
2022-09-28T10:59:22.083Z,15.26
2022-09-28T11:00:22.025Z,15.21
2022-09-28T11:01:22.076Z,15.24
2022-09-28T11:02:21.964Z,15.27
2022-09-28T11:03:21.856Z,15.28
2022-09-28T11:04:21.802Z,15.27
2022-09-28T11:05:21.749Z,15.24
2022-09-28T11:06:21.694Z,15.20
2022-09-28T11:07:21.639Z,15.21
2022-09-28T11:08:21.593Z,15.19
2022-09-28T11:09:21.530Z,15.30
2022-09-28T11:10:21.477Z,15.26
2022-09-28T11:11:21.426Z,15.26
2022-09-28T11:12:21.368Z,15.24
2022-09-28T11:13:21.314Z,15.27
2022-09-28T11:14:21.260Z,15.21
2022-09-28T11:15:21.205Z,15.31
2022-09-28T11:16:21.205Z,15.26
2022-09-28T11:17:21.094Z,15.30
2022-09-28T11:18:21.044Z,15.26
2022-09-28T11:19:20.989Z,15.31
2022-09-28T11:20:26.796Z,15.21
2022-09-28T11:21:20.878Z,15.30
2022-09-28T11:22:20.902Z,15.33
2022-09-28T11:23:20.770Z,15.33
2022-09-28T11:24:21.155Z,15.35
2022-09-28T11:25:20.664Z,15.30
2022-09-28T11:26:20.606Z,15.30
2022-09-28T11:27:20.550Z,15.21
2022-09-28T11:28:20.499Z,15.27
2022-09-28T11:29:20.442Z,15.19
2022-09-28T11:30:20.500Z,15.27
2022-09-28T11:31:20.337Z,15.33
2022-09-28T11:32:20.279Z,15.31
2022-09-28T11:33:20.225Z,15.33
2022-09-28T11:34:27.789Z,15.23
2022-09-28T11:35:20.117Z,15.36
2022-09-28T11:36:20.062Z,15.21
2022-09-28T11:37:20.007Z,15.26
2022-09-28T11:38:19.955Z,15.31
2022-09-28T11:39:20.029Z,15.27
2022-09-28T11:40:19.904Z,15.27
2022-09-28T11:41:19.790Z,15.30
2022-09-28T11:42:19.737Z,15.28
2022-09-28T11:43:19.685Z,15.30
2022-09-28T11:44:19.808Z,15.27
2022-09-28T11:45:19.573Z,15.30
2022-09-28T11:46:19.640Z,15.30
2022-09-28T11:47:19.466Z,15.26
2022-09-28T11:48:19.412Z,15.31
2022-09-28T11:49:19.360Z,15.30
2022-09-28T11:50:23.738Z,15.26
2022-09-28T11:51:19.247Z,15.31
2022-09-28T11:52:19.196Z,15.30
2022-09-28T11:53:19.138Z,15.36
2022-09-28T11:54:19.212Z,15.30
2022-09-28T11:55:19.032Z,15.30
2022-09-28T11:56:18.988Z,15.38
2022-09-28T11:57:18.934Z,15.30
2022-09-28T11:58:18.883Z,15.33
2022-09-28T11:59:18.822Z,15.31
2022-09-28T12:00:18.773Z,15.35
2022-09-28T12:01:19.128Z,15.30
2022-09-28T12:02:18.773Z,15.35
2022-09-28T12:03:18.768Z,15.38
2022-09-28T12:04:18.706Z,15.36
2022-09-28T12:05:20.861Z,15.36
2022-09-28T12:06:18.432Z,15.38
2022-09-28T12:07:18.380Z,15.35
2022-09-28T12:08:18.327Z,15.39
2022-09-28T12:09:18.389Z,15.33
2022-09-28T12:10:18.218Z,15.35
2022-09-28T12:11:18.163Z,15.35
2022-09-28T12:12:18.114Z,15.36
2022-09-28T12:13:18.054Z,15.39
2022-09-28T12:14:18.007Z,15.39
2022-09-28T12:15:17.958Z,15.33
2022-09-28T12:16:38.975Z,15.38
2022-09-28T12:17:20.133Z,15.38
2022-09-28T12:18:17.813Z,15.41
2022-09-28T12:19:17.831Z,15.36
2022-09-28T12:20:17.672Z,15.38
2022-09-28T12:21:17.617Z,15.36
2022-09-28T12:22:17.566Z,15.36
2022-09-28T12:23:17.509Z,15.36
2022-09-28T12:24:17.454Z,15.38
2022-09-28T12:25:17.402Z,15.41
2022-09-28T12:26:17.350Z,15.38
2022-09-28T12:27:17.292Z,15.30
2022-09-28T12:28:17.243Z,15.31
2022-09-28T12:29:17.188Z,15.36
2022-09-28T12:30:17.132Z,15.33
2022-09-28T12:31:17.152Z,15.38
2022-09-28T12:32:17.022Z,15.38
2022-09-28T12:33:16.966Z,15.45
2022-09-28T12:34:16.914Z,15.45
2022-09-28T12:35:16.861Z,15.35
2022-09-28T12:36:16.804Z,15.39
2022-09-28T12:37:16.749Z,15.39
2022-09-28T12:38:16.702Z,15.38
2022-09-28T12:39:22.001Z,15.36
2022-09-28T12:40:16.672Z,15.41
2022-09-28T12:41:16.533Z,15.39
2022-09-28T12:42:16.482Z,15.38
2022-09-28T12:43:16.424Z,15.41
2022-09-28T12:44:16.379Z,15.33
2022-09-28T12:45:16.319Z,15.38
2022-09-28T12:46:16.290Z,15.38
2022-09-28T12:47:16.206Z,15.45
2022-09-28T12:48:16.154Z,15.38
2022-09-28T12:51:15.990Z,15.42
2022-09-28T12:52:15.936Z,15.43
2022-09-28T12:53:15.882Z,15.45
2022-09-28T12:54:15.880Z,15.39